Time;durP1;ratioP1;P1;durP2;ratioP2;P2;SDS_P1;SDS_P2;PMS_P1;PMS_P2;Temp;Humidity;BMP_temperature;BMP_pressure;BME280_temperature;BME280_humidity;BME280_pressure;Samples;Min_cycle;Max_cycle;Signal;HPM_P1;HPM_P2
2022/11/09 00:01:37;;;;;;;18.02;11.27;;;;;;;11.77;98.61;100399.28;5054796;28;20040;-63
2022/11/09 00:04:04;;;;;;;18.42;12.07;;;;;;;11.78;98.22;100403.69;5054708;28;20025;-62
2022/11/09 00:06:31;;;;;;;19.00;11.40;;;;;;;11.74;98.61;100386.09;5054644;28;20056;-62
2022/11/09 00:08:57;;;;;;;19.90;11.80;;;;;;;11.84;98.74;100407.13;5037078;28;20032;-62
2022/11/09 00:11:23;;;;;;;17.02;10.95;;;;;;;11.89;98.25;100406.13;5054855;28;20149;-65
2022/11/09 00:13:49;;;;;;;18.52;11.30;;;;;;;11.93;97.88;100401.59;5054741;28;20028;-62
2022/11/09 00:16:17;;;;;;;20.27;12.15;;;;;;;12.00;97.97;100405.50;5054860;28;20380;-63
2022/11/09 00:18:48;;;;;;;19.88;11.45;;;;;;;12.03;97.74;100395.75;5054569;28;20041;-65
2022/11/09 00:21:16;;;;;;;18.85;11.40;;;;;;;11.99;97.71;100386.44;5054529;28;20029;-63
2022/11/09 00:23:41;;;;;;;18.20;11.30;;;;;;;12.04;97.60;100396.56;5054595;28;20530;-62
2022/11/09 00:26:09;;;;;;;19.70;11.70;;;;;;;11.99;97.53;100387.28;5054666;28;20104;-63
2022/11/09 00:28:35;;;;;;;19.88;11.82;;;;;;;11.97;97.88;100397.00;5054598;28;20037;-63
2022/11/09 00:31:01;;;;;;;19.23;11.32;;;;;;;11.91;98.08;100396.34;5054683;28;20036;-62
2022/11/09 00:33:27;;;;;;;19.30;11.73;;;;;;;11.90;98.42;100391.97;5054288;28;20127;-63
2022/11/09 00:35:53;;;;;;;18.33;11.50;;;;;;;11.89;98.55;100392.28;5054101;28;20160;-61
2022/11/09 00:38:18;;;;;;;19.60;11.63;;;;;;;11.92;98.88;100392.44;5052758;28;20749;-62
2022/11/09 00:40:43;;;;;;;21.58;12.50;;;;;;;11.94;98.80;100395.72;5052817;28;20029;-62
2022/11/09 00:43:10;;;;;;;18.80;11.63;;;;;;;11.96;98.92;100389.81;5053665;28;20167;-62
2022/11/09 00:45:35;;;;;;;20.05;12.00;;;;;;;11.96;98.64;100387.88;5053776;28;20033;-63
2022/11/09 00:48:01;;;;;;;22.00;12.57;;;;;;;11.94;99.04;100386.59;5054014;28;20040;-62
2022/11/09 00:50:26;;;;;;;20.25;12.10;;;;;;;11.89;98.72;100387.56;5054378;28;20032;-62
2022/11/09 00:52:52;;;;;;;21.95;12.32;;;;;;;11.88;99.07;100396.19;5053850;28;20029;-62
2022/11/09 00:55:19;;;;;;;20.20;11.70;;;;;;;11.85;99.17;100392.94;5053746;28;20032;-63
2022/11/09 00:57:48;;;;;;;20.10;12.20;;;;;;;11.76;99.52;100394.06;5054022;28;20100;-63
2022/11/09 01:00:16;;;;;;;19.17;11.95;;;;;;;11.73;99.55;100394.72;5053920;28;20460;-63
2022/11/09 01:02:42;;;;;;;19.50;11.55;;;;;;;11.67;100.00;100394.88;5053646;28;20068;-62
2022/11/09 01:05:07;;;;;;;19.05;12.32;;;;;;;11.62;100.00;100391.47;5053673;28;20053;-62
2022/11/09 01:07:33;;;;;;;19.90;11.52;;;;;;;11.59;100.00;100383.78;5053623;28;20108;-62
2022/11/09 01:09:58;;;;;;;17.60;11.60;;;;;;;11.54;100.00;100384.75;5053416;28;20044;-63
2022/11/09 01:12:23;;;;;;;20.35;10.95;;;;;;;11.54;100.00;100393.91;5053184;28;20361;-63
2022/11/09 01:14:49;;;;;;;19.05;10.93;;;;;;;11.55;100.00;100391.94;5053197;28;20107;-63
2022/11/09 01:17:14;;;;;;;19.25;11.57;;;;;;;11.54;100.00;100396.66;5053375;28;20052;-63
2022/11/09 01:19:39;;;;;;;17.95;11.32;;;;;;;11.53;100.00;100388.66;5053571;28;20076;-62
2022/11/09 01:22:04;;;;;;;18.40;11.48;;;;;;;11.69;100.00;100398.16;5053115;28;20308;-62
2022/11/09 01:24:30;;;;;;;18.10;11.50;;;;;;;11.71;100.00;100411.69;5053372;28;20048;-62
2022/11/09 01:26:55;;;;;;;17.30;11.43;;;;;;;11.77;100.00;100412.34;5035314;28;20051;-62
2022/11/09 01:29:20;;;;;;;18.88;11.23;;;;;;;11.77;99.69;100399.28;5034853;28;20037;-62
2022/11/09 01:31:47;;;;;;;19.75;11.77;;;;;;;11.78;99.51;100411.19;5052412;28;20348;-62
2022/11/09 01:34:12;;;;;;;18.75;11.68;;;;;;;11.78;99.25;100409.22;5052756;28;20029;-61
2022/11/09 01:36:38;;;;;;;18.77;11.80;;;;;;;11.79;99.27;100402.56;5050016;28;20104;-61
2022/11/09 01:39:03;;;;;;;18.63;10.90;;;;;;;11.78;98.88;100414.78;5052610;28;20035;-61
2022/11/09 01:41:28;;;;;;;19.27;11.38;;;;;;;11.80;98.81;100423.59;5052920;28;20036;-63
2022/11/09 01:44:06;;;;;;;19.38;10.98;;;;;;;11.79;98.76;100413.63;5035413;28;20076;-63
2022/11/09 01:46:41;;;;;;;19.60;11.43;;;;;;;11.83;98.29;100409.09;5053710;28;20048;-61
2022/11/09 01:49:15;;;;;;;18.17;11.50;;;;;;;11.84;98.17;100413.50;5053074;28;20028;-62
2022/11/09 01:51:42;;;;;;;;;;;;;;;11.84;97.82;100409.88;5052635;28;20091;-62
2022/11/09 01:54:19;;;;;;;18.48;11.10;;;;;;;11.79;97.89;100413.63;5052746;28;19999;-62
2022/11/09 01:56:46;;;;;;;17.90;11.25;;;;;;;11.77;97.65;100410.38;5053039;28;20029;-62
2022/11/09 01:59:16;;;;;;;20.15;11.15;;;;;;;11.65;97.95;100396.34;5052540;28;20060;-62
2022/11/09 02:01:43;;;;;;;18.77;11.60;;;;;;;11.69;97.93;100397.31;5052619;28;20127;-62
2022/11/09 02:04:23;;;;;;;18.63;12.27;;;;;;;11.58;97.97;100384.91;5034442;28;20097;-62
2022/11/09 02:06:49;;;;;;;21.60;12.30;;;;;;;11.61;98.37;100387.06;5052329;28;20087;-62
2022/11/09 02:09:28;;;;;;;17.10;11.45;;;;;;;11.53;98.72;100388.66;5051692;28;20067;-62
2022/11/09 02:11:54;;;;;;;18.23;11.40;;;;;;;11.53;98.84;100405.28;5052284;28;20124;-62
2022/11/09 02:14:22;;;;;;;19.52;11.27;;;;;;;11.45;98.67;100395.84;5052443;28;20048;-62
2022/11/09 02:16:48;;;;;;;18.83;11.25;;;;;;;11.48;98.66;100394.38;5052090;28;20021;-63
2022/11/09 02:19:14;;;;;;;18.67;11.10;;;;;;;11.50;98.70;100400.41;5051880;28;20430;-61
2022/11/09 02:21:39;;;;;;;20.23;11.85;;;;;;;11.46;99.13;100405.78;5051926;28;20594;-61
2022/11/09 02:24:05;;;;;;;18.58;11.80;;;;;;;11.46;98.71;100404.97;5051904;28;20025;-61
2022/11/09 02:26:43;;;;;;;19.83;11.48;;;;;;;11.44;99.07;100408.06;5052043;28;20515;-62
2022/11/09 02:29:11;;;;;;;19.83;11.15;;;;;;;11.41;99.48;100402.34;5051876;28;20025;-63
2022/11/09 02:31:44;;;;;;;19.15;11.32;;;;;;;11.49;99.06;100418.16;5050134;28;20664;-62
2022/11/09 02:34:16;;;;;;;19.10;11.77;;;;;;;11.49;98.97;100409.84;5052036;28;20105;-61
2022/11/09 02:36:44;;;;;;;19.27;11.90;;;;;;;11.50;99.10;100422.56;5033692;28;20049;-62
2022/11/09 02:39:12;;;;;;;18.08;12.20;;;;;;;11.50;99.52;100431.69;5052014;28;20103;-63
2022/11/09 02:41:54;;;;;;;19.48;11.82;;;;;;;11.46;99.56;100418.81;5051839;28;20044;-62
2022/11/09 02:44:21;;;;;;;20.67;12.23;;;;;;;11.50;99.24;100420.59;5051819;28;20053;-62
2022/11/09 02:46:46;;;;;;;19.92;11.05;;;;;;;11.55;99.13;100425.19;5051555;28;20041;-63
2022/11/09 02:49:12;;;;;;;20.65;11.82;;;;;;;11.57;98.79;100416.56;5051414;28;20021;-62
2022/11/09 02:51:37;;;;;;;22.05;11.32;;;;;;;11.51;98.98;100405.63;5051425;28;20035;-62
2022/11/09 02:54:02;;;;;;;17.38;11.05;;;;;;;11.53;99.13;100414.44;5051162;28;20025;-62
2022/11/09 02:56:28;;;;;;;19.45;11.60;;;;;;;11.53;98.63;100417.19;5051285;28;20033;-61
2022/11/09 02:58:53;;;;;;;19.85;11.48;;;;;;;11.52;98.68;100403.69;5051381;28;20041;-62
2022/11/09 03:01:19;;;;;;;19.23;11.02;;;;;;;11.57;98.22;100395.19;5051109;28;20523;-61
2022/11/09 03:03:44;;;;;;;17.52;11.25;;;;;;;11.64;97.45;100394.72;5051187;28;20139;-63
2022/11/09 03:06:09;;;;;;;21.15;11.70;;;;;;;11.65;97.06;100396.34;5050574;28;20087;-62
2022/11/09 03:08:35;;;;;;;20.15;11.75;;;;;;;11.67;96.84;100407.91;5050772;28;20104;-63
2022/11/09 03:11:01;;;;;;;19.50;10.95;;;;;;;11.74;95.85;100404.66;5051009;28;20104;-62
2022/11/09 03:13:26;;;;;;;18.75;10.73;;;;;;;11.80;95.76;100406.16;5051104;28;20021;-64
2022/11/09 03:15:51;;;;;;;17.75;11.20;;;;;;;11.82;95.20;100417.72;5051195;28;20108;-62
2022/11/09 03:18:17;;;;;;;22.00;11.93;;;;;;;11.83;95.68;100435.97;5051466;28;20047;-61
2022/11/09 03:20:42;;;;;;;19.27;11.13;;;;;;;11.82;95.20;100439.88;5050859;28;20080;-62
2022/11/09 03:23:09;;;;;;;16.80;10.48;;;;;;;11.83;95.29;100434.03;5050743;28;20036;-63
2022/11/09 03:25:35;;;;;;;20.60;11.05;;;;;;;11.83;95.06;100442.34;5051469;28;20029;-62
2022/11/09 03:28:03;;;;;;;18.38;10.45;;;;;;;11.86;94.95;100447.22;5048761;28;20472;-62
2022/11/09 03:30:28;;;;;;;18.95;11.15;;;;;;;11.91;93.67;100446.25;5051285;28;20040;-62
2022/11/09 03:32:59;;;;;;;20.65;11.27;;;;;;;11.89;94.29;100447.72;5051093;28;20396;-62
2022/11/09 03:35:24;;;;;;;19.90;11.55;;;;;;;11.86;93.97;100451.97;5051288;28;20024;-61
2022/11/09 03:37:49;;;;;;;18.35;11.50;;;;;;;11.82;94.29;100440.72;5050904;28;20036;-62
2022/11/09 03:40:15;;;;;;;19.88;11.25;;;;;;;11.79;94.42;100457.97;5050709;28;20033;-62
2022/11/09 03:42:44;;;;;;;21.05;11.15;;;;;;;11.75;95.00;100458.94;5050649;28;20029;-62
2022/11/09 03:45:11;;;;;;;18.95;11.13;;;;;;;11.70;95.39;100457.97;5050810;28;20614;-62
2022/11/09 03:47:40;;;;;;;19.15;11.10;;;;;;;11.52;95.34;100434.94;5050686;28;20032;-62
2022/11/09 03:50:06;;;;;;;20.35;11.15;;;;;;;11.63;95.76;100473.44;5050971;28;20385;-62
2022/11/09 03:52:31;;;;;;;20.02;11.45;;;;;;;11.57;96.15;100475.53;5050790;28;20049;-62
2022/11/09 03:54:56;;;;;;;20.25;11.50;;;;;;;11.57;96.27;100483.06;5050524;28;20061;-62
2022/11/09 03:57:21;;;;;;;17.95;11.35;;;;;;;11.61;95.62;100482.09;5050619;28;20592;-62
2022/11/09 03:59:47;;;;;;;21.80;11.48;;;;;;;11.52;96.47;100484.81;5050158;28;20113;-62
2022/11/09 04:02:12;;;;;;;21.33;11.32;;;;;;;11.47;96.95;100482.22;5049266;28;20032;-62
2022/11/09 04:04:37;;;;;;;18.58;10.57;;;;;;;11.46;97.15;100480.56;5050138;28;20136;-62
2022/11/09 04:07:03;;;;;;;21.52;11.73;;;;;;;11.45;97.63;100483.66;5050091;28;20031;-64
2022/11/09 04:09:28;;;;;;;19.50;11.20;;;;;;;11.45;97.87;100491.94;5049848;28;20029;-61
2022/11/09 04:11:54;;;;;;;20.20;11.25;;;;;;;11.42;98.31;100489.84;5050320;28;20052;-62
2022/11/09 04:14:19;;;;;;;20.05;10.90;;;;;;;11.39;98.16;100488.50;5032195;28;20044;-61
2022/11/09 04:16:44;;;;;;;18.48;11.05;;;;;;;11.34;98.63;100494.22;5050444;28;20032;-63
2022/11/09 04:19:10;;;;;;;18.63;11.30;;;;;;;11.28;99.29;100503.81;5049969;28;20099;-63
2022/11/09 04:21:35;;;;;;;23.90;11.57;;;;;;;11.29;99.04;100494.38;5032119;28;20040;-61
2022/11/09 04:24:00;;;;;;;21.67;11.40;;;;;;;11.23;99.50;100502.78;5047685;28;20039;-62
2022/11/09 04:26:25;;;;;;;20.88;11.63;;;;;;;11.18;99.79;100505.72;5050198;28;20511;-62
2022/11/09 04:28:51;;;;;;;22.58;11.70;;;;;;;11.17;100.00;100512.38;5049993;28;20025;-62
2022/11/09 04:31:16;;;;;;;20.25;11.40;;;;;;;11.18;100.00;100514.03;5049982;28;20025;-63
2022/11/09 04:33:41;;;;;;;21.52;12.00;;;;;;;11.20;100.00;100510.94;5052397;28;20025;-62
2022/11/09 04:36:07;;;;;;;22.92;11.65;;;;;;;11.24;100.00;100514.72;5053722;28;20021;-63
2022/11/09 04:38:32;;;;;;;23.17;12.10;;;;;;;11.26;99.82;100509.66;5053405;28;20033;-62
2022/11/09 04:41:03;;;;;;;22.45;12.18;;;;;;;11.24;99.87;100507.19;5053340;28;20111;-63
2022/11/09 04:43:28;;;;;;;21.15;11.88;;;;;;;11.32;99.86;100521.41;5053180;28;20032;-62
2022/11/09 04:45:53;;;;;;;19.30;11.40;;;;;;;11.32;99.54;100513.09;5053619;28;20419;-62
2022/11/09 04:48:19;;;;;;;17.65;11.13;;;;;;;11.27;99.93;100510.47;5035550;28;20379;-63
2022/11/09 04:50:44;;;;;;;20.92;11.90;;;;;;;11.29;99.30;100516.50;5052876;28;20028;-61
2022/11/09 04:53:12;;;;;;;18.95;11.50;;;;;;;11.23;99.87;100513.06;5035115;28;20036;-61
2022/11/09 04:55:38;;;;;;;21.42;11.20;;;;;;;11.25;100.00;100521.84;5034478;28;20185;-61
2022/11/09 04:58:04;;;;;;;19.50;11.30;;;;;;;11.23;100.00;100524.16;5053015;28;20090;-61
2022/11/09 05:00:30;;;;;;;20.08;11.65;;;;;;;11.20;100.00;100524.78;5052585;28;20033;-62
2022/11/09 05:02:59;;;;;;;21.05;11.75;;;;;;;11.14;100.00;100517.75;5052612;28;20025;-62
2022/11/09 05:05:24;;;;;;;21.08;11.98;;;;;;;11.09;100.00;100513.16;5034833;28;20107;-62
2022/11/09 05:07:49;;;;;;;20.45;11.90;;;;;;;11.06;100.00;100519.31;5052553;28;20432;-62
2022/11/09 05:10:14;;;;;;;22.08;11.98;;;;;;;11.01;100.00;100502.84;5052727;28;20047;-61
2022/11/09 05:12:40;;;;;;;21.45;12.02;;;;;;;10.94;100.00;100503.31;5052619;28;20420;-62
2022/11/09 05:15:06;;;;;;;20.02;12.35;;;;;;;10.89;100.00;100512.56;5034775;28;20021;-62
2022/11/09 05:17:31;;;;;;;22.55;11.93;;;;;;;10.83;100.00;100508.28;5052619;28;20474;-62
2022/11/09 05:19:56;;;;;;;20.70;12.18;;;;;;;10.85;100.00;100513.50;5048897;28;20119;-62
2022/11/09 05:25:05;;;;;;;21.75;12.48;;;;;;;10.83;100.00;100510.25;5052368;28;20087;-62
2022/11/09 05:27:32;;;;;;;21.33;12.00;;;;;;;10.82;100.00;100511.38;5052216;28;20127;-61
2022/11/09 05:29:57;;;;;;;20.92;12.15;;;;;;;10.74;100.00;100507.41;5052209;28;20124;-61
2022/11/09 05:32:22;;;;;;;22.60;12.20;;;;;;;10.71;100.00;100508.84;5052077;28;20404;-62
2022/11/09 05:34:47;;;;;;;20.80;12.32;;;;;;;10.63;100.00;100506.06;5052337;28;20060;-61
2022/11/09 05:37:13;;;;;;;22.33;13.02;;;;;;;10.61;100.00;100511.88;5052457;28;20032;-61
2022/11/09 05:39:38;;;;;;;20.15;12.50;;;;;;;10.58;100.00;100512.53;5052341;28;20111;-62
2022/11/09 05:42:03;;;;;;;21.48;12.27;;;;;;;10.57;100.00;100525.53;5034229;28;20040;-62
2022/11/09 05:44:29;;;;;;;21.10;12.30;;;;;;;10.58;100.00;100518.06;5051105;28;20116;-64
2022/11/09 05:46:54;;;;;;;20.88;12.07;;;;;;;10.55;100.00;100516.72;5052132;28;20033;-62
2022/11/09 05:49:20;;;;;;;22.17;12.93;;;;;;;10.51;100.00;100520.41;5052029;28;20457;-61
2022/11/09 05:51:45;;;;;;;21.50;12.60;;;;;;;10.49;100.00;100514.38;5051888;28;20463;-62
2022/11/09 05:54:10;;;;;;;20.58;12.68;;;;;;;10.42;100.00;100501.81;5034035;28;20037;-61
2022/11/09 05:56:36;;;;;;;19.50;12.30;;;;;;;10.45;100.00;100517.78;5052424;28;20056;-62
2022/11/09 05:59:01;;;;;;;21.27;13.38;;;;;;;10.46;100.00;100518.59;5052256;28;20498;-62
2022/11/09 06:01:26;;;;;;;22.08;12.00;;;;;;;10.51;100.00;100517.66;5051981;28;20073;-62
2022/11/09 06:03:54;;;;;;;21.17;12.57;;;;;;;10.49;100.00;100519.91;5052045;28;20025;-62
2022/11/09 06:06:20;;;;;;;21.40;12.27;;;;;;;10.42;100.00;100515.66;5052279;28;20128;-61
2022/11/09 06:08:45;;;;;;;22.10;12.88;;;;;;;10.43;100.00;100525.59;5052482;28;20115;-62
2022/11/09 06:11:12;;;;;;;19.90;12.93;;;;;;;10.23;100.00;100501.13;5052377;28;20033;-62
2022/11/09 06:13:38;;;;;;;21.58;12.75;;;;;;;10.34;100.00;100527.44;5051286;28;20479;-62
2022/11/09 06:16:05;;;;;;;20.92;12.35;;;;;;;10.32;100.00;100526.13;5048966;28;20021;-62
2022/11/09 06:18:32;;;;;;;19.08;12.15;;;;;;;10.28;100.00;100525.91;5051135;28;20041;-63
2022/11/09 06:20:59;;;;;;;19.92;12.30;;;;;;;10.23;100.00;100529.63;5051033;28;20084;-63
2022/11/09 06:23:25;;;;;;;21.05;11.85;;;;;;;10.21;100.00;100531.03;5050653;28;20036;-63
2022/11/09 06:25:52;;;;;;;24.48;12.23;;;;;;;10.18;100.00;100532.47;5050576;28;20061;-63
2022/11/09 06:28:17;;;;;;;19.20;11.75;;;;;;;10.15;100.00;100536.69;5050856;28;20472;-63
2022/11/09 06:30:43;;;;;;;19.35;11.93;;;;;;;10.14;100.00;100534.25;5050815;28;20029;-62
2022/11/09 06:33:08;;;;;;;20.58;12.50;;;;;;;10.11;100.00;100538.44;5050534;28;20029;-63
2022/11/09 06:35:34;;;;;;;22.38;12.18;;;;;;;10.09;100.00;100540.72;5050349;28;20070;-62
2022/11/09 06:37:59;;;;;;;20.67;12.43;;;;;;;10.07;100.00;100542.13;5050073;28;20775;-62
2022/11/09 06:40:25;;;;;;;23.05;12.90;;;;;;;10.08;100.00;100543.78;5050195;28;20048;-63
2022/11/09 06:42:51;;;;;;;21.60;13.40;;;;;;;10.09;100.00;100545.41;5049646;28;20037;-62
2022/11/09 06:45:16;;;;;;;21.00;13.05;;;;;;;10.13;100.00;100547.25;5049296;28;20024;-62
2022/11/09 06:47:41;;;;;;;21.70;13.60;;;;;;;10.14;100.00;100548.06;5049452;28;20061;-62
2022/11/09 06:50:08;;;;;;;21.30;12.45;;;;;;;10.18;100.00;100554.59;5049640;28;20465;-63
2022/11/09 06:52:33;;;;;;;25.88;12.40;;;;;;;10.17;100.00;100547.44;5049561;28;20448;-63
2022/11/09 06:54:59;;;;;;;21.10;12.27;;;;;;;10.17;100.00;100554.91;5049660;28;20025;-63
2022/11/09 06:57:24;;;;;;;20.00;12.30;;;;;;;10.17;100.00;100550.19;5049368;28;20055;-63
2022/11/09 06:59:49;;;;;;;21.48;12.02;;;;;;;10.14;100.00;100553.59;5049722;28;20387;-63
2022/11/09 07:02:19;;;;;;;21.75;12.50;;;;;;;10.12;100.00;100561.38;5049670;28;20086;-63
2022/11/09 07:04:44;;;;;;;20.05;12.25;;;;;;;10.12;100.00;100562.19;5049496;28;20037;-64
2022/11/09 07:07:10;;;;;;;24.08;12.60;;;;;;;10.13;100.00;100565.78;5050113;28;20492;-68
2022/11/09 07:09:36;;;;;;;19.23;12.13;;;;;;;10.10;100.00;100564.47;5048904;28;20033;-67
2022/11/09 07:12:02;;;;;;;22.33;12.07;;;;;;;10.08;100.00;100561.19;5050499;28;20028;-65
2022/11/09 07:14:28;;;;;;;22.73;12.13;;;;;;;10.08;100.00;100566.72;5032985;28;20029;-63
2022/11/09 07:16:53;;;;;;;20.85;11.77;;;;;;;10.07;100.00;100567.00;5051034;28;20056;-63
2022/11/09 07:19:18;;;;;;;20.95;11.77;;;;;;;10.09;100.00;100571.13;5050394;28;20791;-63
2022/11/09 07:21:44;;;;;;;23.67;12.68;;;;;;;10.11;100.00;100571.59;5050755;28;20056;-59
2022/11/09 07:24:09;;;;;;;20.17;12.05;;;;;;;10.13;100.00;100572.13;5050507;28;20115;-58
2022/11/09 07:26:34;;;;;;;22.88;12.23;;;;;;;10.18;100.00;100581.44;5050883;28;20074;-58
2022/11/09 07:28:59;;;;;;;20.90;11.95;;;;;;;10.22;100.00;100582.44;5033050;28;20100;-61
2022/11/09 07:31:28;;;;;;;23.70;11.77;;;;;;;10.23;100.00;100573.03;5051071;28;20033;-61
2022/11/09 07:33:54;;;;;;;21.85;11.30;;;;;;;10.35;100.00;100586.28;5039103;28;20029;-62
2022/11/09 07:36:22;;;;;;;20.60;11.55;;;;;;;10.40;100.00;100578.75;5030040;28;20029;-61
2022/11/09 07:38:47;;;;;;;20.35;11.18;;;;;;;10.43;100.00;100588.38;5029873;28;20735;-62
2022/11/09 07:41:12;;;;;;;18.67;10.98;;;;;;;10.42;100.00;100583.97;5029982;28;20040;-64
2022/11/09 07:43:38;;;;;;;23.13;11.32;;;;;;;10.49;100.00;100586.28;5027064;28;20083;-61
2022/11/09 07:46:04;;;;;;;20.52;11.27;;;;;;;10.48;100.00;100579.97;5037341;28;20036;-60
2022/11/09 07:48:29;;;;;;;20.83;11.10;;;;;;;10.51;100.00;100582.09;5036773;28;20032;-61
2022/11/09 07:50:56;;;;;;;19.55;11.15;;;;;;;10.55;100.00;100585.06;5016809;28;20360;-61
2022/11/09 07:53:21;;;;;;;21.50;10.77;;;;;;;10.58;100.00;100587.22;5035774;28;20113;-61
2022/11/09 07:55:55;;;;;;;21.55;10.90;;;;;;;10.58;100.00;100581.69;5047927;28;20183;-61
2022/11/09 07:58:20;;;;;;;;;;;;;;;10.66;100.00;100597.53;5048119;28;20218;-62
2022/11/09 08:00:46;;;;;;;22.27;11.13;;;;;;;10.60;100.00;100598.75;5048631;28;19998;-62
2022/11/09 08:03:11;;;;;;;19.15;10.68;;;;;;;10.59;100.00;100595.19;5048670;28;20750;-62
2022/11/09 08:05:37;;;;;;;20.42;11.02;;;;;;;10.59;100.00;100600.72;5049623;28;20089;-60
2022/11/09 08:08:05;;;;;;;22.02;11.30;;;;;;;10.61;100.00;100605.94;5051166;28;20033;-61
2022/11/09 08:10:32;;;;;;;22.48;10.88;;;;;;;10.64;100.00;100608.09;5024360;28;20469;-60
2022/11/09 08:13:01;;;;;;;18.08;10.60;;;;;;;10.73;100.00;100608.97;5044847;28;20392;-61
2022/11/09 08:15:28;;;;;;;18.38;10.40;;;;;;;10.82;100.00;100614.56;5041668;28;20028;-61
2022/11/09 08:17:53;;;;;;;20.58;10.93;;;;;;;10.85;100.00;100611.19;5033582;28;20033;-61
2022/11/09 08:20:19;;;;;;;18.58;10.90;;;;;;;10.90;100.00;100608.31;5032940;28;20133;-62
2022/11/09 08:22:45;;;;;;;22.80;11.55;;;;;;;10.95;100.00;100612.88;5032890;28;20029;-62
2022/11/09 08:25:12;;;;;;;19.83;10.20;;;;;;;11.05;100.00;100625.66;5032938;28;20110;-62
2022/11/09 08:27:40;;;;;;;19.48;11.00;;;;;;;11.10;100.00;100636.59;5038697;28;20037;-61
2022/11/09 08:30:12;;;;;;;21.17;10.90;;;;;;;11.08;100.00;100628.59;5043896;28;20025;-64
2022/11/09 08:32:38;;;;;;;20.15;10.88;;;;;;;11.11;100.00;100634.66;5043165;28;20116;-62
2022/11/09 08:35:03;;;;;;;20.70;10.50;;;;;;;11.16;100.00;100634.50;5041910;28;20116;-61
2022/11/09 08:37:29;;;;;;;19.58;10.75;;;;;;;11.16;100.00;100640.88;5041518;28;20088;-62
2022/11/09 08:39:54;;;;;;;20.92;10.65;;;;;;;11.18;100.00;100643.31;5035886;28;20030;-60
2022/11/09 08:42:20;;;;;;;18.38;10.30;;;;;;;11.19;100.00;100653.25;5049536;28;20114;-62
2022/11/09 08:44:45;;;;;;;17.83;10.85;;;;;;;11.21;100.00;100646.28;5052400;28;20472;-61
2022/11/09 08:47:10;;;;;;;19.05;10.75;;;;;;;11.27;100.00;100643.41;5034304;28;20041;-62
2022/11/09 08:49:36;;;;;;;19.42;10.68;;;;;;;11.33;100.00;100647.66;5053107;28;20087;-61
2022/11/09 08:52:01;;;;;;;19.00;9.98;;;;;;;11.33;100.00;100639.34;5052517;28;20017;-62
2022/11/09 08:54:26;;;;;;;19.02;10.40;;;;;;;11.33;100.00;100647.66;5052933;28;20528;-62
2022/11/09 08:56:55;;;;;;;20.08;10.50;;;;;;;11.45;100.00;100641.53;5034859;28;20114;-61
2022/11/09 08:59:21;;;;;;;21.90;10.40;;;;;;;11.53;99.46;100646.28;5053164;28;20067;-62
2022/11/09 09:01:46;;;;;;;17.90;9.80;;;;;;;11.64;99.26;100647.66;5052633;28;20440;-61
2022/11/09 09:04:12;;;;;;;19.15;10.38;;;;;;;11.70;98.37;100640.88;5031819;28;20033;-61
2022/11/09 09:06:37;;;;;;;16.92;10.07;;;;;;;11.77;97.80;100640.38;5033506;28;20029;-61
2022/11/09 09:09:03;;;;;;;21.90;10.27;;;;;;;11.83;96.72;100643.84;5041804;28;20034;-61
2022/11/09 09:11:28;;;;;;;19.27;9.90;;;;;;;11.86;95.96;100632.13;5033718;28;20020;-61
2022/11/09 09:13:53;;;;;;;18.20;10.20;;;;;;;11.91;96.33;100645.03;5072295;28;20032;-61
2022/11/09 09:16:19;;;;;;;18.77;9.80;;;;;;;11.93;95.53;100629.69;5061648;28;20079;-61
2022/11/09 09:18:46;;;;;;;23.00;10.32;;;;;;;11.94;95.60;100639.66;5051826;28;20061;-61
2022/11/09 09:21:12;;;;;;;17.25;9.65;;;;;;;12.01;94.68;100642.78;5051214;28;20058;-61
2022/11/09 09:23:38;;;;;;;21.23;9.90;;;;;;;12.04;94.68;100649.69;5051724;28;20041;-62
2022/11/09 09:26:03;;;;;;;20.48;10.02;;;;;;;12.10;93.32;100655.88;5051645;28;20056;-60
2022/11/09 09:28:29;;;;;;;19.45;9.98;;;;;;;12.04;93.62;100649.69;5051743;28;20052;-62
2022/11/09 09:30:59;;;;;;;19.55;9.90;;;;;;;12.01;93.44;100642.00;5051661;28;20037;-60
2022/11/09 09:33:26;;;;;;;16.40;9.18;;;;;;;12.19;92.19;100656.72;5050312;28;20457;-61
2022/11/09 09:35:53;;;;;;;16.92;9.20;;;;;;;12.12;92.39;100648.88;5050472;28;20035;-61
2022/11/09 09:38:18;;;;;;;20.48;9.60;;;;;;;12.19;92.03;100661.44;5050708;28;20048;-62
2022/11/09 09:40:57;;;;;;;19.08;9.73;;;;;;;12.30;92.32;100663.59;5050513;28;20025;-61
2022/11/09 09:43:28;;;;;;;17.73;9.90;;;;;;;12.39;90.47;100666.41;5050726;28;20049;-60
2022/11/09 09:45:54;;;;;;;20.33;9.80;;;;;;;12.38;90.55;100675.88;5050729;28;20025;-62
2022/11/09 09:48:45;;;;;;;21.35;10.10;;;;;;;12.43;90.06;100661.03;5051165;28;20093;-61
2022/11/09 09:51:24;;;;;;;20.45;9.80;;;;;;;12.42;89.64;100678.81;5050128;28;20035;-61
2022/11/09 09:53:58;;;;;;;18.45;9.63;;;;;;;12.38;89.21;100673.09;5033389;28;20472;-61
2022/11/09 09:56:32;;;;;;;21.63;9.95;;;;;;;12.30;90.48;100673.91;5047981;28;20080;-61
2022/11/09 09:59:19;;;;;;;21.23;10.50;;;;;;;12.45;89.56;100683.72;5051248;28;20139;-61
2022/11/09 10:01:46;;;;;;;20.35;10.45;;;;;;;12.44;89.70;100685.66;5050847;28;20088;-61
2022/11/09 10:04:24;;;;;;;23.83;10.38;;;;;;;12.43;89.01;100681.25;5051107;28;20108;-60
2022/11/09 10:06:57;;;;;;;18.17;9.80;;;;;;;12.57;87.98;100689.44;5051281;28;20029;-62
2022/11/09 10:09:25;;;;;;;21.92;10.20;;;;;;;12.60;87.08;100696.31;5051337;28;20017;-60
2022/11/09 10:11:59;;;;;;;20.63;10.07;;;;;;;12.68;86.35;100689.13;5046232;28;20154;-61
2022/11/09 10:14:28;;;;;;;17.88;9.75;;;;;;;12.76;86.13;100693.88;5033337;28;20140;-60
2022/11/09 10:17:11;;;;;;;20.95;10.00;;;;;;;12.79;85.31;100684.91;5050607;28;20079;-61
2022/11/09 10:20:14;;;;;;;15.93;9.32;;;;;;;12.87;87.05;100699.94;5050783;28;20152;-61
2022/11/09 10:23:15;;;;;;;20.77;10.32;;;;;;;12.98;86.90;100703.22;5015446;28;20115;-60
2022/11/09 10:25:44;;;;;;;19.77;9.88;;;;;;;13.06;84.88;100677.41;5050933;28;20037;-61
2022/11/09 10:28:13;;;;;;;18.10;9.40;;;;;;;13.29;83.85;100688.34;5050778;28;20078;-61
2022/11/09 10:30:39;;;;;;;20.02;9.63;;;;;;;13.37;83.44;100688.31;5050167;28;20044;-62
2022/11/09 10:33:07;;;;;;;19.27;9.40;;;;;;;13.53;82.68;100690.63;5032242;28;20120;-62
2022/11/09 10:35:39;;;;;;;16.73;8.77;;;;;;;13.60;81.87;100696.50;5032195;28;20440;-61
2022/11/09 10:38:13;;;;;;;18.00;8.90;;;;;;;13.61;81.26;100692.56;5050616;28;20029;-61
2022/11/09 10:40:50;;;;;;;16.58;9.40;;;;;;;13.65;80.80;100704.63;5050553;28;20040;-62
2022/11/09 10:43:15;;;;;;;17.95;9.20;;;;;;;13.66;81.09;100706.28;5050152;28;20028;-61
2022/11/09 10:45:43;;;;;;;19.90;10.23;;;;;;;13.67;81.01;100693.22;5050136;28;20037;-61
2022/11/09 10:48:11;;;;;;;16.65;9.02;;;;;;;13.68;79.88;100715.09;5049178;28;20021;-61
2022/11/09 10:50:51;;;;;;;19.77;10.25;;;;;;;13.65;79.16;100724.09;5048643;28;20036;-63
2022/11/09 10:53:22;;;;;;;21.00;10.15;;;;;;;13.54;78.87;100709.75;5031555;28;20368;-60
2022/11/09 10:56:16;;;;;;;21.75;9.30;;;;;;;13.67;78.97;100719.03;5032362;28;20574;-60
2022/11/09 10:58:41;;;;;;;18.15;9.30;;;;;;;13.59;78.09;100721.84;5050205;28;20033;-63
2022/11/09 11:01:34;;;;;;;20.80;9.60;;;;;;;13.56;78.49;100704.69;5050374;28;20186;-62
2022/11/09 11:04:19;;;;;;;16.85;8.95;;;;;;;13.52;78.43;100711.22;5049836;28;20409;-62
2022/11/09 11:06:45;;;;;;;15.85;9.05;;;;;;;13.49;77.89;100720.22;5049652;28;20033;-60
2022/11/09 11:09:10;;;;;;;15.30;8.75;;;;;;;13.43;78.37;100719.56;5049569;28;20479;-61
2022/11/09 11:11:37;;;;;;;19.97;9.33;;;;;;;13.33;78.05;100704.03;5031701;28;20391;-60